Time;durP1;ratioP1;P1;durP2;ratioP2;P2;SDS_P1;SDS_P2;PMS_P1;PMS_P2;Temp;Humidity;BMP_temperature;BMP_pressure;BME280_temperature;BME280_humidity;BME280_pressure;Samples;Min_cycle;Max_cycle;Signal;HPM_P1;HPM_P2
2022/03/20 00:02:18;;;;;;;19.98;10.00;;;;;;;4.38;60.85;103248.50;4995210;28;20030;-56
2022/03/20 00:04:43;;;;;;;18.52;9.05;;;;;;;4.35;60.80;103246.16;4995933;28;20026;-55
2022/03/20 00:07:11;;;;;;;22.00;10.55;;;;;;;4.32;61.00;103238.38;4996174;28;20034;-56
2022/03/20 00:09:39;;;;;;;19.73;9.73;;;;;;;4.29;61.26;103238.75;4995715;28;20100;-56
2022/03/20 00:12:05;;;;;;;21.45;10.52;;;;;;;4.28;61.62;103237.06;5004959;28;20528;-56
2022/03/20 00:14:31;;;;;;;20.25;9.70;;;;;;;4.23;61.86;103237.69;4997724;28;20522;-58
2022/03/20 00:16:56;;;;;;;18.17;9.63;;;;;;;4.20;61.59;103230.72;5015275;28;20105;-56
2022/03/20 00:19:21;;;;;;;19.77;10.07;;;;;;;4.11;62.48;103214.69;5015221;28;20026;-56
2022/03/20 00:21:47;;;;;;;20.98;10.80;;;;;;;4.15;61.96;103216.81;4997898;28;20029;-56
2022/03/20 00:24:12;;;;;;;20.58;10.25;;;;;;;4.11;61.96;103212.78;5015104;28;20072;-56
2022/03/20 00:26:39;;;;;;;23.33;11.13;;;;;;;4.10;62.66;103218.47;4997340;28;20038;-57
2022/03/20 00:29:06;;;;;;;21.48;10.68;;;;;;;4.07;62.25;103214.22;5015191;28;20508;-57
2022/03/20 00:31:32;;;;;;;21.42;11.23;;;;;;;4.04;62.69;103201.78;5015279;28;20022;-56
2022/03/20 00:33:57;;;;;;;20.38;11.20;;;;;;;4.02;63.15;103194.81;5014998;28;20033;-56
2022/03/20 00:36:23;;;;;;;20.27;10.48;;;;;;;3.98;62.18;103182.56;5014869;28;20548;-55
2022/03/20 00:38:48;;;;;;;23.17;11.68;;;;;;;3.97;62.46;103184.47;5014823;28;20080;-57
2022/03/20 00:41:13;;;;;;;19.98;11.07;;;;;;;3.93;62.85;103185.09;5014794;28;20068;-56
2022/03/20 00:43:38;;;;;;;20.92;11.50;;;;;;;3.90;62.84;103178.13;5014834;28;20343;-56
2022/03/20 00:46:04;;;;;;;22.17;11.43;;;;;;;3.87;63.34;103175.78;5014830;28;20045;-56
2022/03/20 00:48:29;;;;;;;21.58;11.38;;;;;;;3.85;62.99;103172.41;5014884;28;20080;-56
2022/03/20 00:50:54;;;;;;;23.02;11.65;;;;;;;3.80;63.31;103167.53;5014586;28;20026;-57
2022/03/20 00:53:20;;;;;;;22.70;11.55;;;;;;;3.80;63.61;103169.44;5014827;28;20365;-57
2022/03/20 00:55:45;;;;;;;22.73;11.60;;;;;;;3.81;63.40;103155.53;5014487;28;20084;-56
2022/03/20 00:58:12;;;;;;;23.55;12.10;;;;;;;3.81;63.66;103157.44;4997212;28;20022;-57
2022/03/20 01:00:37;;;;;;;22.08;11.90;;;;;;;3.79;62.67;103159.53;5014715;28;20041;-57
2022/03/20 01:03:02;;;;;;;23.17;11.75;;;;;;;3.72;63.28;103151.28;5014589;28;20462;-55
2022/03/20 01:05:28;;;;;;;21.55;12.07;;;;;;;3.70;63.56;103153.38;5014215;28;20030;-55
2022/03/20 01:07:53;;;;;;;22.20;12.30;;;;;;;3.62;63.40;103151.69;5014415;28;20018;-56
2022/03/20 01:10:19;;;;;;;22.52;12.25;;;;;;;3.57;63.69;103146.81;5014450;28;20040;-56
2022/03/20 01:12:44;;;;;;;24.83;13.00;;;;;;;3.51;63.34;103141.28;5014400;28;20106;-56
2022/03/20 01:15:12;;;;;;;23.30;12.82;;;;;;;3.51;64.22;103155.81;5014233;28;20531;-54
2022/03/20 01:17:38;;;;;;;23.05;13.18;;;;;;;3.49;63.89;103149.72;5014313;28;20025;-54
2022/03/20 01:20:05;;;;;;;22.67;13.70;;;;;;;3.46;64.02;103141.91;4996477;28;20061;-55
2022/03/20 01:22:31;;;;;;;23.25;13.73;;;;;;;3.44;63.69;103141.25;5014550;28;20472;-54
2022/03/20 01:24:56;;;;;;;23.90;14.23;;;;;;;3.40;64.15;103135.34;5014027;28;20061;-55
2022/03/20 01:27:21;;;;;;;25.75;15.15;;;;;;;3.39;63.47;103130.91;4996586;28;20030;-54
2022/03/20 01:29:47;;;;;;;26.63;15.52;;;;;;;3.38;62.79;103115.53;5014044;28;20025;-55
2022/03/20 01:32:12;;;;;;;25.60;16.33;;;;;;;3.37;62.95;103115.75;5014067;28;20026;-55
2022/03/20 01:34:38;;;;;;;27.23;15.93;;;;;;;3.40;63.04;103116.19;5014180;28;20080;-56
2022/03/20 01:37:04;;;;;;;26.65;16.33;;;;;;;3.36;63.44;103112.13;5013963;28;20033;-56
2022/03/20 01:39:29;;;;;;;27.70;17.20;;;;;;;3.35;63.53;103106.88;5014021;28;20026;-56
2022/03/20 01:41:55;;;;;;;26.63;17.38;;;;;;;3.33;63.33;103112.56;5014021;28;20462;-57
2022/03/20 01:44:29;;;;;;;26.35;16.58;;;;;;;3.21;62.74;103081.34;5013896;28;20033;-56
2022/03/20 01:46:54;;;;;;;27.38;17.73;;;;;;;3.31;62.83;103100.97;5013901;28;20026;-56
2022/03/20 01:49:19;;;;;;;29.08;17.25;;;;;;;3.29;63.05;103078.44;5013746;28;20032;-57
2022/03/20 01:54:30;;;;;;;28.25;17.75;;;;;;;3.25;63.58;103080.72;5014016;28;20449;-56
2022/03/20 01:56:55;;;;;;;27.88;17.17;;;;;;;3.23;63.66;103066.41;5013518;28;20474;-56
2022/03/20 01:59:21;;;;;;;27.55;18.00;;;;;;;3.21;63.25;103068.50;5013493;28;20037;-56
2022/03/20 02:01:46;;;;;;;29.33;18.60;;;;;;;3.15;63.66;103063.00;5013547;28;20030;-56
2022/03/20 02:04:14;;;;;;;29.95;19.00;;;;;;;3.19;64.08;103077.94;5013623;28;20462;-56
2022/03/20 02:06:40;;;;;;;28.70;18.08;;;;;;;3.03;63.30;103049.03;5013269;28;20022;-56
2022/03/20 02:09:06;;;;;;;28.55;17.90;;;;;;;3.14;63.54;103067.63;5013458;28;20025;-56
2022/03/20 02:11:32;;;;;;;27.63;17.85;;;;;;;3.12;63.21;103070.56;5013782;28;20041;-56
2022/03/20 02:13:58;;;;;;;31.13;18.98;;;;;;;3.08;63.70;103057.50;5013959;28;20041;-56
2022/03/20 02:16:23;;;;;;;30.05;18.08;;;;;;;3.06;64.12;103062.31;5013589;28;20022;-56
2022/03/20 02:18:50;;;;;;;29.90;18.48;;;;;;;3.02;63.97;103058.31;5013476;28;20033;-57
2022/03/20 02:21:15;;;;;;;29.73;18.52;;;;;;;2.99;63.78;103054.06;5013673;28;20136;-56
2022/03/20 02:23:43;;;;;;;27.60;18.38;;;;;;;2.95;63.67;103052.78;5013195;28;20058;-56
2022/03/20 02:26:09;;;;;;;29.77;18.63;;;;;;;2.92;63.70;103047.72;4995535;28;20053;-57
2022/03/20 02:28:34;;;;;;;30.20;18.38;;;;;;;2.90;64.21;103047.91;4979659;28;20021;-56
2022/03/20 02:31:00;;;;;;;29.50;19.00;;;;;;;2.89;64.16;103042.63;5013110;28;20038;-57
2022/03/20 02:33:27;;;;;;;29.42;18.45;;;;;;;2.82;64.24;103034.41;5013117;28;20691;-56
2022/03/20 02:35:53;;;;;;;30.70;18.05;;;;;;;2.76;64.98;103032.44;4995364;28;20034;-56
2022/03/20 02:38:20;;;;;;;29.02;18.08;;;;;;;2.73;64.57;103028.22;5013130;28;20037;-56
2022/03/20 02:40:45;;;;;;;29.17;18.50;;;;;;;2.69;64.78;103016.03;5013523;28;20061;-56
2022/03/20 02:43:11;;;;;;;26.98;17.25;;;;;;;2.69;64.56;103028.84;5013144;28;20096;-56
2022/03/20 02:45:37;;;;;;;31.50;18.58;;;;;;;2.67;64.53;103012.63;4995724;28;20080;-56
2022/03/20 02:48:04;;;;;;;30.25;18.88;;;;;;;2.62;65.18;103013.25;5013304;28;20022;-56
2022/03/20 02:50:36;;;;;;;28.92;19.10;;;;;;;2.55;65.05;103003.28;5013199;28;20030;-56
2022/03/20 02:53:13;;;;;;;31.48;19.38;;;;;;;2.52;65.07;103000.94;5012986;28;20069;-57
2022/03/20 02:55:40;;;;;;;32.53;20.58;;;;;;;2.50;65.16;102993.78;5012981;28;20045;-56
2022/03/20 02:58:11;;;;;;;29.83;20.10;;;;;;;2.56;65.61;103003.09;4995528;28;20034;-56
2022/03/20 03:00:37;;;;;;;33.13;20.20;;;;;;;2.54;65.41;103007.06;5013037;28;20034;-56
2022/03/20 03:03:04;;;;;;;29.35;18.85;;;;;;;2.51;65.15;103005.59;5012984;28;20489;-56
2022/03/20 03:05:30;;;;;;;31.35;21.30;;;;;;;2.46;65.41;102997.97;5013008;28;20022;-56
2022/03/20 03:11:01;;;;;;;32.60;23.45;;;;;;;2.45;65.51;102985.38;5013209;28;20061;-56
2022/03/20 03:13:30;;;;;;;31.55;20.75;;;;;;;2.42;65.81;102984.91;5013146;28;20050;-56
2022/03/20 03:15:58;;;;;;;30.08;19.65;;;;;;;2.39;65.84;102993.50;5012849;28;20022;-56
2022/03/20 03:18:24;;;;;;;33.72;21.05;;;;;;;2.33;66.50;102989.66;5012943;28;20115;-56
2022/03/20 03:20:51;;;;;;;33.50;21.20;;;;;;;2.31;66.45;102978.13;5012935;28;20486;-56
2022/03/20 03:23:17;;;;;;;34.67;21.65;;;;;;;2.31;66.37;102991.78;5012580;28;20041;-56
2022/03/20 03:25:42;;;;;;;32.58;20.83;;;;;;;2.30;66.22;102981.88;4995198;28;20394;-56
2022/03/20 03:28:09;;;;;;;36.13;22.13;;;;;;;2.24;66.85;102975.34;5012707;28;20022;-56
2022/03/20 03:30:38;;;;;;;34.42;21.00;;;;;;;2.21;66.53;102967.53;5012847;28;20034;-56
2022/03/20 03:33:04;;;;;;;31.17;20.67;;;;;;;2.18;67.20;102956.97;4995395;28;20096;-56
2022/03/20 03:38:18;;;;;;;31.83;20.95;;;;;;;2.13;66.94;102957.56;5016562;28;20041;-56
2022/03/20 03:40:45;;;;;;;33.65;21.35;;;;;;;2.12;67.35;102952.31;5016572;28;20021;-56
2022/03/20 03:43:11;;;;;;;31.88;20.73;;;;;;;2.05;67.22;102941.34;5016197;28;20029;-56
2022/03/20 03:45:39;;;;;;;32.95;20.98;;;;;;;2.01;67.50;102942.78;5015995;28;20026;-56
2022/03/20 03:48:05;;;;;;;33.03;22.42;;;;;;;1.99;67.98;102936.66;5016049;28;20018;-56
2022/03/20 03:50:30;;;;;;;33.92;21.98;;;;;;;1.96;67.60;102937.06;5015881;28;20057;-56
2022/03/20 03:52:55;;;;;;;33.25;21.70;;;;;;;1.95;67.73;102927.19;5015932;28;20032;-56
2022/03/20 03:55:21;;;;;;;32.90;22.08;;;;;;;1.91;67.96;102929.47;5015918;28;20500;-56
2022/03/20 03:57:49;;;;;;;33.28;22.02;;;;;;;1.86;67.61;102921.84;5016052;28;20029;-56
2022/03/20 04:00:16;;;;;;;31.77;21.05;;;;;;;1.76;68.42;102909.59;5015990;28;20038;-56
2022/03/20 04:02:41;;;;;;;32.50;22.33;;;;;;;1.79;68.44;102915.50;5015596;28;20025;-56
2022/03/20 04:05:07;;;;;;;32.67;21.05;;;;;;;1.80;68.00;102919.91;4998070;28;20520;-56
2022/03/20 04:07:33;;;;;;;33.28;22.27;;;;;;;1.73;68.32;102913.56;5015816;28;20038;-56
2022/03/20 04:09:59;;;;;;;35.75;20.92;;;;;;;1.77;68.64;102912.13;5015635;28;20040;-56
2022/03/20 04:12:25;;;;;;;32.47;21.35;;;;;;;1.75;68.62;102918.81;5015384;28;20064;-56
2022/03/20 04:14:50;;;;;;;38.20;22.48;;;;;;;1.67;69.16;102917.91;5015738;28;20108;-56
2022/03/20 04:17:15;;;;;;;34.15;22.73;;;;;;;1.68;69.06;102916.03;4998058;28;20034;-56
2022/03/20 04:19:41;;;;;;;32.15;21.60;;;;;;;1.67;69.14;102911.59;5015656;28;20033;-56
2022/03/20 04:22:07;;;;;;;33.75;22.63;;;;;;;1.67;68.88;102909.72;4997874;28;20043;-56
2022/03/20 04:24:32;;;;;;;32.60;21.65;;;;;;;1.67;68.54;102903.41;4997874;28;20033;-56
2022/03/20 04:26:58;;;;;;;35.28;22.55;;;;;;;1.68;68.64;102892.31;5015307;28;20029;-56
2022/03/20 04:29:25;;;;;;;32.33;20.83;;;;;;;1.69;69.00;102871.31;5015442;28;20032;-56
2022/03/20 04:31:53;;;;;;;32.75;21.58;;;;;;;1.67;68.63;102878.84;5015301;28;20382;-56
2022/03/20 04:34:20;;;;;;;33.47;21.35;;;;;;;1.67;68.88;102871.53;5015101;28;20026;-56
2022/03/20 04:36:46;;;;;;;32.33;21.63;;;;;;;1.65;68.40;102859.97;4997578;28;20025;-56
2022/03/20 04:39:11;;;;;;;34.72;23.50;;;;;;;1.65;68.22;102854.50;5015028;28;20018;-56
2022/03/20 04:41:36;;;;;;;33.00;22.45;;;;;;;1.68;68.77;102869.63;4997486;28;20060;-56
2022/03/20 04:44:02;;;;;;;31.27;22.08;;;;;;;1.65;68.44;102861.88;5015277;28;20026;-56
2022/03/20 04:46:27;;;;;;;33.15;21.23;;;;;;;1.62;68.69;102860.34;5014882;28;20049;-56
2022/03/20 04:59:49;;;;;;;32.03;21.83;;;;;;;1.54;68.32;102847.72;5015483;28;20041;-56
2022/03/20 05:02:15;;;;;;;31.27;20.95;;;;;;;1.46;68.44;102826.03;4997118;28;20025;-56
2022/03/20 05:04:40;;;;;;;34.03;21.85;;;;;;;1.53;68.53;102839.69;5014589;28;20469;-56
2022/03/20 05:07:06;;;;;;;32.28;20.25;;;;;;;1.53;68.25;102843.28;5014740;28;20029;-56
2022/03/20 05:15:04;;;;;;;32.78;21.77;;;;;;;1.47;67.82;102816.78;5015004;28;20560;-56
2022/03/20 05:17:30;;;;;;;32.63;21.27;;;;;;;1.55;67.73;102813.94;4996753;28;20030;-56
2022/03/20 05:19:55;;;;;;;30.58;19.95;;;;;;;1.55;67.78;102818.53;5014258;28;20120;-56
2022/03/20 05:22:20;;;;;;;33.05;20.15;;;;;;;1.56;67.41;102815.59;5014750;28;20018;-56
2022/03/20 05:24:46;;;;;;;29.95;19.95;;;;;;;1.58;67.38;102820.00;5014215;28;20030;-56
2022/03/20 05:27:11;;;;;;;32.00;19.52;;;;;;;1.57;66.88;102821.91;5014416;28;20022;-56
2022/03/20 05:29:38;;;;;;;31.80;20.48;;;;;;;1.59;66.87;102822.56;4996512;28;20573;-56
2022/03/20 05:32:04;;;;;;;32.30;20.35;;;;;;;1.56;67.41;102814.75;4996624;28;20073;-56
2022/03/20 05:34:32;;;;;;;32.45;20.63;;;;;;;1.54;66.79;102811.38;5014072;28;20457;-56
2022/03/20 05:36:59;;;;;;;32.13;20.00;;;;;;;1.53;66.40;102813.28;5013973;28;20037;-56
2022/03/20 05:39:24;;;;;;;32.47;21.63;;;;;;;1.55;66.07;102813.06;5013978;28;20100;-56
2022/03/20 05:41:51;;;;;;;31.73;20.42;;;;;;;1.52;65.98;102806.13;5013950;28;20500;-56
2022/03/20 05:44:19;;;;;;;33.88;21.40;;;;;;;1.48;65.34;102795.81;5014123;28;20104;-56
2022/03/20 05:46:46;;;;;;;33.28;21.05;;;;;;;1.59;65.11;102821.69;5013758;28;20026;-56
2022/03/20 05:49:12;;;;;;;31.52;20.25;;;;;;;1.61;64.83;102812.28;5013727;28;20025;-56
2022/03/20 05:51:38;;;;;;;32.35;20.67;;;;;;;1.64;63.98;102811.06;5013861;28;20243;-56
2022/03/20 05:54:04;;;;;;;31.65;20.98;;;;;;;1.67;63.77;102808.78;5013739;28;20068;-56
2022/03/20 05:59:13;;;;;;;31.40;20.50;;;;;;;1.76;62.60;102801.25;5013536;28;20053;-56
2022/03/20 06:01:39;;;;;;;32.72;20.58;;;;;;;1.84;62.05;102792.09;5013649;28;20397;-56
2022/03/20 06:04:06;;;;;;;32.25;20.27;;;;;;;1.89;61.68;102781.41;5013794;28;20029;-56
2022/03/20 06:06:32;;;;;;;31.98;20.08;;;;;;;1.96;60.94;102786.91;5013637;28;20491;-56
2022/03/20 06:08:57;;;;;;;30.33;19.00;;;;;;;2.00;60.59;102791.78;5013543;28;20030;-56
2022/03/20 06:11:22;;;;;;;30.65;18.65;;;;;;;2.03;61.22;102787.81;4995861;28;20145;-56
2022/03/20 06:13:48;;;;;;;31.88;19.67;;;;;;;2.07;60.92;102782.81;5013632;28;20052;-56
2022/03/20 06:16:15;;;;;;;30.48;18.70;;;;;;;2.08;60.38;102779.84;4995723;28;20433;-56
2022/03/20 06:18:42;;;;;;;34.95;20.42;;;;;;;2.07;61.00;102771.88;5013407;28;20488;-56
2022/03/20 06:21:09;;;;;;;31.65;18.60;;;;;;;2.10;60.13;102780.50;4996307;28;20026;-56
2022/03/20 06:23:35;;;;;;;31.85;19.40;;;;;;;2.14;59.97;102778.22;5013483;28;20022;-56
2022/03/20 06:26:00;;;;;;;33.05;18.85;;;;;;;2.18;60.59;102772.16;5013203;28;20034;-56
2022/03/20 06:28:26;;;;;;;32.05;18.67;;;;;;;2.21;60.89;102773.63;5013543;28;20060;-56
2022/03/20 06:30:52;;;;;;;33.00;20.38;;;;;;;2.24;59.91;102770.50;4995590;28;20030;-56
2022/03/20 06:33:17;;;;;;;34.35;20.77;;;;;;;2.27;59.95;102770.06;5013332;28;20112;-56
2022/03/20 06:35:42;;;;;;;32.05;18.92;;;;;;;2.30;60.24;102775.13;5013302;28;20026;-57
2022/03/20 06:38:07;;;;;;;32.67;18.88;;;;;;;2.32;60.12;102773.06;5013663;28;20037;-56
2022/03/20 06:40:33;;;;;;;32.25;19.80;;;;;;;2.35;60.38;102774.53;5013336;28;20038;-56
2022/03/20 06:42:58;;;;;;;35.60;19.52;;;;;;;2.36;59.76;102775.38;5013128;28;20482;-56
2022/03/20 06:45:24;;;;;;;32.30;18.75;;;;;;;2.38;59.50;102770.53;5013064;28;20109;-56
2022/03/20 06:47:50;;;;;;;30.67;18.92;;;;;;;2.40;59.91;102776.66;5013131;28;20045;-56
2022/03/20 06:50:16;;;;;;;30.83;18.92;;;;;;;2.39;59.31;102764.03;5013261;28;20030;-56
2022/03/20 06:52:42;;;;;;;31.52;19.38;;;;;;;2.41;59.52;102762.78;5013084;28;20496;-56
2022/03/20 06:55:13;;;;;;;36.47;20.45;;;;;;;2.36;59.00;102745.34;5013101;28;20167;-56
2022/03/20 06:57:44;;;;;;;31.45;18.75;;;;;;;2.35;58.76;102744.47;5013153;28;20073;-56
2022/03/20 07:00:11;;;;;;;30.85;19.30;;;;;;;2.47;57.81;102761.97;4995516;28;20037;-56
2022/03/20 07:02:36;;;;;;;31.23;18.30;;;;;;;2.53;57.74;102754.00;5013178;28;20021;-56
2022/03/20 07:05:02;;;;;;;30.48;18.70;;;;;;;2.59;57.61;102743.09;5012940;28;20370;-56
2022/03/20 07:07:28;;;;;;;30.75;17.92;;;;;;;2.72;57.10;102745.03;5012847;28;20499;-56
2022/03/20 07:09:53;;;;;;;32.55;18.38;;;;;;;2.86;57.14;102739.59;4995865;28;20104;-59
2022/03/20 07:12:19;;;;;;;30.95;19.40;;;;;;;2.99;56.45;102733.31;5016736;28;20057;-56
2022/03/20 07:14:45;;;;;;;31.42;18.92;;;;;;;3.09;55.21;102737.28;5016603;28;20104;-56
2022/03/20 07:17:15;;;;;;;27.85;18.13;;;;;;;3.17;55.01;102736.25;5016529;28;20060;-56
2022/03/20 07:19:43;;;;;;;33.10;18.90;;;;;;;3.24;53.69;102717.94;4999025;28;20084;-56
2022/03/20 07:22:10;;;;;;;31.40;17.63;;;;;;;3.28;53.85;102718.38;4998801;28;20053;-56
2022/03/20 07:24:37;;;;;;;31.90;18.35;;;;;;;3.36;53.07;102717.31;5016532;28;20033;-56
2022/03/20 07:29:48;;;;;;;31.00;18.60;;;;;;;3.45;52.95;102698.81;5016678;28;20603;-56
2022/03/20 07:32:13;;;;;;;31.10;19.58;;;;;;;3.52;51.97;102705.09;5016380;28;20030;-56
2022/03/20 07:34:39;;;;;;;29.05;18.70;;;;;;;3.59;52.52;102693.06;5016395;28;20041;-56
2022/03/20 07:37:06;;;;;;;31.05;18.85;;;;;;;3.68;51.44;102687.41;5016173;28;20029;-56
2022/03/20 07:39:32;;;;;;;29.30;17.92;;;;;;;3.71;50.55;102696.00;5016103;28;20041;-56
2022/03/20 07:41:58;;;;;;;31.05;18.98;;;;;;;3.67;51.10;102686.53;5016181;28;20076;-56
2022/03/20 07:44:29;;;;;;;30.10;18.33;;;;;;;3.71;50.75;102686.94;5016206;28;20026;-56
2022/03/20 07:46:55;;;;;;;30.50;18.10;;;;;;;3.74;51.08;102684.63;5016185;28;20040;-56
2022/03/20 07:49:20;;;;;;;30.58;18.13;;;;;;;3.80;50.93;102690.31;5016174;28;20443;-55
2022/03/20 07:51:46;;;;;;;33.30;18.00;;;;;;;3.84;50.44;102695.13;5015958;28;20045;-55
2022/03/20 07:54:12;;;;;;;29.80;18.58;;;;;;;3.85;50.26;102694.09;5015827;28;20018;-55
2022/03/20 07:56:38;;;;;;;29.27;18.58;;;;;;;3.90;50.14;102687.97;5015883;28;20034;-56
2022/03/20 07:59:07;;;;;;;29.33;18.67;;;;;;;3.93;50.15;102678.47;5015956;28;20018;-55
2022/03/20 08:01:35;;;;;;;30.73;18.40;;;;;;;3.95;49.82;102674.44;5015843;28;20493;-56
2022/03/20 08:04:02;;;;;;;31.55;19.13;;;;;;;3.97;49.60;102668.78;5015676;28;20461;-55
2022/03/20 08:06:28;;;;;;;30.80;19.33;;;;;;;4.01;49.69;102665.38;5015539;28;20041;-56
2022/03/20 08:08:53;;;;;;;30.05;18.90;;;;;;;4.04;49.81;102662.19;5015664;28;20034;-56
2022/03/20 08:11:19;;;;;;;29.95;19.02;;;;;;;4.02;49.72;102667.03;5015354;28;20391;-56
2022/03/20 08:13:45;;;;;;;29.58;17.52;;;;;;;3.99;49.13;102647.47;5015683;28;20022;-56
2022/03/20 08:16:15;;;;;;;29.92;18.75;;;;;;;3.96;49.99;102656.13;4998360;28;20037;-56
2022/03/20 08:18:43;;;;;;;31.95;18.42;;;;;;;3.93;49.49;102653.81;5015542;28;20076;-56
2022/03/20 08:21:09;;;;;;;30.80;18.38;;;;;;;3.89;49.66;102659.72;5015583;28;20080;-56
2022/03/20 08:23:36;;;;;;;31.38;18.00;;;;;;;3.86;49.53;102659.31;4997035;28;20485;-56
2022/03/20 08:26:01;;;;;;;30.20;18.63;;;;;;;3.87;49.99;102645.41;5015155;28;20034;-56
2022/03/20 08:28:27;;;;;;;30.05;18.63;;;;;;;3.89;50.31;102656.97;5015522;28;20144;-56
2022/03/20 08:30:52;;;;;;;29.98;17.85;;;;;;;3.89;49.96;102647.94;4997573;28;20080;-56
2022/03/20 08:33:17;;;;;;;32.40;18.48;;;;;;;3.90;50.23;102636.75;5015384;28;20061;-56
2022/03/20 08:35:44;;;;;;;29.80;18.25;;;;;;;3.88;49.72;102646.25;5015015;28;20034;-56
2022/03/20 08:38:09;;;;;;;30.60;18.58;;;;;;;3.90;49.98;102644.97;5015447;28;20032;-56
2022/03/20 08:40:35;;;;;;;30.23;17.73;;;;;;;3.93;49.83;102643.69;5015090;28;20030;-56
2022/03/20 08:43:04;;;;;;;29.80;17.60;;;;;;;3.96;50.10;102643.28;5015082;28;20076;-56
2022/03/20 08:45:31;;;;;;;28.80;18.40;;;;;;;3.96;49.20;102646.00;5014968;28;20030;-56
2022/03/20 08:47:57;;;;;;;31.17;19.33;;;;;;;3.90;50.25;102642.22;4997276;28;20022;-56
2022/03/20 08:50:24;;;;;;;30.92;18.23;;;;;;;3.88;49.85;102647.09;5014832;28;20034;-56
2022/03/20 08:52:49;;;;;;;28.23;17.90;;;;;;;3.87;51.11;102647.31;5014755;28;20044;-56
2022/03/20 08:55:16;;;;;;;29.70;18.42;;;;;;;3.87;50.77;102647.31;5015197;28;20022;-56
2022/03/20 08:57:44;;;;;;;31.10;18.65;;;;;;;3.86;51.12;102654.69;5014886;28;20101;-56
2022/03/20 09:00:11;;;;;;;32.35;19.27;;;;;;;3.83;50.65;102635.09;5014614;28;20029;-56
2022/03/20 09:02:37;;;;;;;30.95;18.90;;;;;;;3.95;51.02;102651.72;5014665;28;20033;-56
2022/03/20 09:05:06;;;;;;;32.40;19.65;;;;;;;3.96;50.83;102647.91;5014686;28;20034;-56
2022/03/20 09:07:32;;;;;;;34.33;18.50;;;;;;;4.02;50.77;102650.59;5014750;28;20037;-56
2022/03/20 09:09:58;;;;;;;30.63;19.25;;;;;;;4.06;50.74;102654.59;5014471;28;20503;-56
2022/03/20 09:12:23;;;;;;;30.55;18.83;;;;;;;4.08;50.01;102654.38;5014178;28;20120;-55
2022/03/20 09:14:49;;;;;;;30.20;19.58;;;;;;;4.12;50.22;102652.03;4996872;28;20116;-55
2022/03/20 09:19:58;;;;;;;33.65;19.00;;;;;;;4.22;50.54;102635.97;5014893;28;20177;-55
2022/03/20 09:22:26;;;;;;;31.02;19.40;;;;;;;4.28;49.67;102621.41;4997017;28;20057;-55
2022/03/20 09:24:52;;;;;;;31.50;19.80;;;;;;;4.31;50.01;102620.13;5014417;28;20034;-55
2022/03/20 09:27:17;;;;;;;31.05;19.63;;;;;;;4.39;49.65;102616.28;5014212;28;20030;-55
2022/03/20 09:29:42;;;;;;;29.75;18.88;;;;;;;4.49;50.74;102622.09;5014443;28;20477;-55
2022/03/20 09:32:08;;;;;;;32.33;20.67;;;;;;;4.66;50.02;102616.94;5013968;28;20026;-55
2022/03/20 09:34:34;;;;;;;30.23;19.75;;;;;;;4.93;50.12;102606.59;5013265;28;20030;-55
2022/03/20 09:37:00;;;;;;;32.10;19.70;;;;;;;5.28;48.62;102600.56;5014180;28;20030;-55
2022/03/20 09:39:26;;;;;;;30.55;19.70;;;;;;;5.61;48.31;102599.34;5014114;28;20427;-55
2022/03/20 09:41:54;;;;;;;30.50;19.23;;;;;;;5.98;47.31;102598.44;4996470;28;20030;-56
2022/03/20 09:44:24;;;;;;;30.95;19.80;;;;;;;6.30;46.99;102601.00;4996461;28;20440;-57
2022/03/20 09:46:49;;;;;;;35.40;21.45;;;;;;;6.55;46.18;102575.25;5013748;28;20053;-56
2022/03/20 09:49:16;;;;;;;32.53;19.95;;;;;;;6.75;45.68;102563.06;4996251;28;20499;-56
2022/03/20 09:51:42;;;;;;;31.02;20.70;;;;;;;6.82;45.47;102570.16;4980131;28;20435;-55
2022/03/20 09:54:08;;;;;;;31.80;20.13;;;;;;;6.78;44.83;102568.09;5013748;28;20387;-55
2022/03/20 09:56:34;;;;;;;30.63;20.45;;;;;;;6.71;45.41;102571.78;5013850;28;20028;-55
2022/03/20 09:58:59;;;;;;;32.10;20.77;;;;;;;6.64;45.78;102568.31;4996024;28;20033;-57
2022/03/20 10:01:25;;;;;;;33.75;20.80;;;;;;;6.63;46.01;102568.56;5013618;28;20026;-55
2022/03/20 10:04:11;;;;;;;32.10;21.45;;;;;;;6.64;45.92;102579.31;5013555;28;20040;-55
2022/03/20 10:06:38;;;;;;;34.28;21.33;;;;;;;6.56;45.38;102583.25;5013644;28;20036;-55
2022/03/20 10:09:05;;;;;;;36.20;21.77;;;;;;;6.47;45.41;102592.09;4995916;28;20084;-55
2022/03/20 10:11:32;;;;;;;33.95;22.55;;;;;;;6.34;46.22;102590.38;5013467;28;20100;-55
2022/03/20 10:14:15;;;;;;;34.28;21.77;;;;;;;6.28;47.20;102589.41;5013475;28;20040;-56
2022/03/20 10:16:43;;;;;;;35.90;21.85;;;;;;;6.18;46.58;102605.63;5013742;28;20367;-56
2022/03/20 10:19:38;;;;;;;35.00;21.65;;;;;;;6.20;46.93;102607.06;5013331;28;20477;-57
2022/03/20 10:22:11;;;;;;;35.88;23.58;;;;;;;6.08;47.51;102603.44;4992050;28;20494;-56
2022/03/20 10:24:40;;;;;;;36.08;24.52;;;;;;;6.00;52.07;102615.59;5013593;28;20076;-56
2022/03/20 10:27:13;;;;;;;37.25;23.27;;;;;;;5.82;56.20;102619.16;4995617;28;20124;-56
2022/03/20 10:29:55;;;;;;;39.22;25.42;;;;;;;5.76;57.36;102637.38;5013295;28;20032;-56
2022/03/20 10:32:23;;;;;;;38.85;25.63;;;;;;;5.53;62.49;102642.72;5013444;28;20030;-55
2022/03/20 10:34:52;;;;;;;39.70;25.98;;;;;;;5.32;64.76;102636.59;5013195;28;20137;-56
2022/03/20 10:37:19;;;;;;;39.15;26.35;;;;;;;5.24;66.04;102643.22;5013392;28;20056;-57
2022/03/20 10:39:45;;;;;;;40.67;28.15;;;;;;;5.02;68.29;102642.78;5013385;28;20034;-57
2022/03/20 10:42:14;;;;;;;40.40;27.98;;;;;;;4.90;69.74;102631.72;5013169;28;20033;-57
2022/03/20 10:44:41;;;;;;;39.17;26.10;;;;;;;4.80;69.81;102639.59;5013145;28;20029;-56
2022/03/20 10:47:13;;;;;;;42.22;30.08;;;;;;;4.62;71.66;102632.16;5016604;28;20461;-56
2022/03/20 10:49:41;;;;;;;38.65;27.38;;;;;;;4.52;72.30;102628.00;5017369;28;20029;-55
2022/03/20 10:52:08;;;;;;;39.38;26.70;;;;;;;4.55;72.35;102606.69;5017007;28;20029;-56
2022/03/20 10:54:40;;;;;;;41.35;28.98;;;;;;;4.58;73.51;102607.06;5017213;28;20030;-55
2022/03/20 10:57:06;;;;;;;41.20;28.05;;;;;;;4.65;73.20;102616.09;5017176;28;20112;-55
2022/03/20 10:59:32;;;;;;;38.85;27.30;;;;;;;4.69;72.22;102608.28;5016855;28;20492;-55
2022/03/20 11:01:58;;;;;;;41.10;28.25;;;;;;;4.70;72.99;102596.25;5017056;28;20022;-57
2022/03/20 11:04:24;;;;;;;41.92;29.10;;;;;;;4.78;71.50;102604.19;5017268;28;20025;-56
2022/03/20 11:06:54;;;;;;;40.90;28.67;;;;;;;4.89;72.69;102601.78;5016669;28;20048;-56
2022/03/20 11:09:20;;;;;;;42.20;29.75;;;;;;;5.02;73.10;102609.03;5016915;28;20036;-57
2022/03/20 11:11:57;;;;;;;41.08;28.52;;;;;;;5.15;72.55;102607.00;5016429;28;20049;-56
2022/03/20 11:14:24;;;;;;;43.30;28.85;;;;;;;5.21;73.06;102593.44;5017128;28;20094;-56
2022/03/20 11:17:06;;;;;;;39.38;28.17;;;;;;;5.47;71.82;102609.66;5016532;28;20474;-56
2022/03/20 11:19:33;;;;;;;39.60;27.50;;;;;;;5.59;72.31;102604.22;5016577;28;20109;-56
2022/03/20 11:22:10;;;;;;;38.78;26.85;;;;;;;5.63;70.78;102601.84;5016695;28;20034;-56
2022/03/20 11:24:36;;;;;;;41.42;28.23;;;;;;;5.68;69.91;102606.66;4999133;28;20537;-56
2022/03/20 11:27:04;;;;;;;39.95;27.75;;;;;;;5.78;71.95;102617.94;5016333;28;20482;-56
2022/03/20 11:29:51;;;;;;;39.00;27.33;;;;;;;5.97;70.80;102621.50;5016496;28;20029;-56
2022/03/20 11:32:18;;;;;;;41.78;28.65;;;;;;;6.08;69.54;102620.75;5016509;28;20022;-55
2022/03/20 11:34:45;;;;;;;39.03;27.33;;;;;;;6.22;68.88;102613.16;4999674;28;20041;-56
2022/03/20 11:37:15;;;;;;;40.75;28.70;;;;;;;6.33;69.90;102614.25;5016601;28;20212;-56
2022/03/20 11:40:11;;;;;;;42.38;29.00;;;;;;;6.46;69.54;102609.66;5016827;28;20022;-56
2022/03/20 11:42:38;;;;;;;41.65;29.33;;;;;;;6.57;70.15;102600.59;4998847;28;20053;-56
2022/03/20 11:45:03;;;;;;;40.15;29.13;;;;;;;6.65;69.11;102599.44;4998573;28;20026;-56
2022/03/20 11:47:30;;;;;;;38.58;28.10;;;;;;;6.65;69.32;102594.75;5016225;28;20096;-56
2022/03/20 11:50:13;;;;;;;40.08;28.70;;;;;;;6.68;68.84;102590.69;5016162;28;20427;-56